createdAt,value
2018-10-03T00:00:55.497Z,1.07
2018-10-03T00:03:23.028Z,1.87
2018-10-03T00:05:50.661Z,2.47
2018-10-03T00:08:18.186Z,2.37
2018-10-03T00:10:45.697Z,1.33
2018-10-03T00:13:13.250Z,1.80
2018-10-03T00:15:40.803Z,3.87
2018-10-03T00:18:08.342Z,3.80
2018-10-03T00:20:35.987Z,1.40
2018-10-03T00:23:03.646Z,2.30
2018-10-03T00:25:31.526Z,3.30
2018-10-03T00:27:59.151Z,2.40
2018-10-03T00:30:26.685Z,1.63
2018-10-03T00:32:54.306Z,2.53
2018-10-03T00:35:21.926Z,1.50
2018-10-03T00:37:49.566Z,2.73
2018-10-03T00:40:17.218Z,4.73
2018-10-03T00:42:44.737Z,1.50
2018-10-03T00:45:12.472Z,3.00
2018-10-03T00:47:40.102Z,2.90
2018-10-03T00:50:07.769Z,1.67
2018-10-03T00:52:35.423Z,4.47
2018-10-03T00:55:03.105Z,2.23
2018-10-03T00:57:30.725Z,3.00
2018-10-03T00:59:58.340Z,3.40
2018-10-03T01:02:25.934Z,3.40
2018-10-03T01:04:53.556Z,2.53
2018-10-03T01:07:21.094Z,1.57
2018-10-03T01:09:48.632Z,4.50
2018-10-03T01:12:16.254Z,3.17
2018-10-03T01:14:43.797Z,0.93
2018-10-03T01:17:11.423Z,3.43
2018-10-03T01:19:39.033Z,3.40
2018-10-03T01:22:06.647Z,4.00
2018-10-03T01:24:34.258Z,3.53
2018-10-03T01:27:01.893Z,3.17
2018-10-03T01:29:29.482Z,1.30
2018-10-03T01:31:57.083Z,4.00
2018-10-03T01:34:24.754Z,1.40
2018-10-03T01:36:52.418Z,1.73
2018-10-03T01:39:20.052Z,1.70
2018-10-03T01:41:47.642Z,1.87
2018-10-03T01:44:15.291Z,1.90
2018-10-03T01:46:42.810Z,2.13
2018-10-03T01:49:10.419Z,3.17
2018-10-03T01:51:38.067Z,3.43
2018-10-03T01:54:05.691Z,3.13
2018-10-03T01:56:33.316Z,2.23
2018-10-03T01:59:00.993Z,2.70
2018-10-03T02:01:28.832Z,2.10
2018-10-03T02:03:56.514Z,3.37
2018-10-03T02:06:24.139Z,1.63
2018-10-03T02:08:51.777Z,2.67
2018-10-03T02:11:19.290Z,3.03
2018-10-03T02:13:46.802Z,2.33
2018-10-03T02:16:14.429Z,2.93
2018-10-03T02:18:42.091Z,2.07
2018-10-03T02:21:09.630Z,1.93
2018-10-03T02:23:37.240Z,1.30
2018-10-03T02:26:04.899Z,5.80
2018-10-03T02:28:32.529Z,4.70
2018-10-03T02:31:00.061Z,5.07
2018-10-03T02:33:27.743Z,17.73
2018-10-03T02:35:55.268Z,26.37
2018-10-03T02:38:22.802Z,4.70
2018-10-03T02:40:50.485Z,2.80
2018-10-03T02:43:18.040Z,4.80
2018-10-03T02:45:45.679Z,2.50
2018-10-03T02:48:13.361Z,3.17
2018-10-03T02:50:41.022Z,2.87
2018-10-03T02:53:08.558Z,2.33
2018-10-03T02:55:36.096Z,3.27
2018-10-03T02:58:03.681Z,2.30
2018-10-03T03:00:31.281Z,2.53
2018-10-03T03:02:58.818Z,2.37
2018-10-03T03:05:26.378Z,1.37
2018-10-03T03:07:54.006Z,2.03
2018-10-03T03:10:21.530Z,1.60
2018-10-03T03:12:49.115Z,1.37
2018-10-03T03:15:16.667Z,2.30
2018-10-03T03:17:44.316Z,2.33
2018-10-03T03:20:11.993Z,1.87
2018-10-03T03:22:39.658Z,2.90
2018-10-03T03:25:07.271Z,2.40
2018-10-03T03:27:34.871Z,3.17
2018-10-03T03:30:02.417Z,3.03
2018-10-03T03:32:30.042Z,3.07
2018-10-03T03:34:57.638Z,1.73
2018-10-03T03:37:25.165Z,1.87
2018-10-03T03:39:52.786Z,2.73
2018-10-03T03:42:20.294Z,3.17
2018-10-03T03:44:47.833Z,3.40
2018-10-03T03:47:15.454Z,1.97
2018-10-03T03:49:42.966Z,2.33
2018-10-03T03:52:11.179Z,2.70
2018-10-03T03:54:38.767Z,1.80
2018-10-03T03:57:06.261Z,2.00
2018-10-03T03:59:33.783Z,2.90
2018-10-03T04:02:01.321Z,2.63
2018-10-03T04:04:28.928Z,1.70
2018-10-03T04:06:56.539Z,3.50
2018-10-03T04:09:24.048Z,2.10
2018-10-03T04:11:51.677Z,2.93
2018-10-03T04:14:19.295Z,4.83
2018-10-03T04:16:46.870Z,1.23
2018-10-03T04:19:14.398Z,1.97
2018-10-03T04:21:41.898Z,1.93
2018-10-03T04:24:10.550Z,1.30
2018-10-03T04:26:38.807Z,1.40
2018-10-03T04:29:06.443Z,1.40
2018-10-03T04:31:34.686Z,1.50
2018-10-03T04:34:02.790Z,1.03
2018-10-03T04:36:30.550Z,1.93
2018-10-03T04:38:58.065Z,2.03
2018-10-03T04:41:25.668Z,0.87
2018-10-03T04:43:53.342Z,2.07
2018-10-03T04:46:21.367Z,1.93
2018-10-03T04:48:49.009Z,3.20
2018-10-03T04:51:17.059Z,1.93
2018-10-03T04:53:44.687Z,2.07
2018-10-03T04:56:12.308Z,2.23
2018-10-03T04:58:39.935Z,2.03
2018-10-03T05:01:08.028Z,2.03
2018-10-03T05:03:35.646Z,0.87
2018-10-03T05:06:03.181Z,1.33
2018-10-03T05:08:30.714Z,1.60
2018-10-03T05:10:58.238Z,3.07
2018-10-03T05:13:25.904Z,1.93
2018-10-03T05:15:53.434Z,2.53
2018-10-03T05:18:21.048Z,2.07
2018-10-03T05:20:48.678Z,1.83
2018-10-03T05:23:16.205Z,4.23
2018-10-03T05:25:43.810Z,1.70
2018-10-03T05:28:11.543Z,1.83
2018-10-03T05:30:39.156Z,2.87
2018-10-03T05:33:06.670Z,1.43
2018-10-03T05:35:34.291Z,0.90
2018-10-03T05:38:01.910Z,1.17
2018-10-03T05:40:29.438Z,3.03
2018-10-03T05:42:57.090Z,2.83
2018-10-03T05:45:24.626Z,1.87
2018-10-03T05:47:52.146Z,1.87
2018-10-03T05:50:19.758Z,1.60
2018-10-03T05:52:47.367Z,2.07
2018-10-03T05:55:14.885Z,2.23
2018-10-03T05:57:42.501Z,0.87
2018-10-03T06:00:10.037Z,1.67
2018-10-03T06:02:37.738Z,0.97
2018-10-03T06:05:05.261Z,2.10
2018-10-03T06:07:32.864Z,1.40
2018-10-03T06:10:00.471Z,1.97
2018-10-03T06:12:28.090Z,1.40
2018-10-03T06:14:55.738Z,2.80
2018-10-03T06:17:30.045Z,2.20
2018-10-03T06:19:57.646Z,1.13
2018-10-03T06:22:25.266Z,0.97
2018-10-03T06:24:52.875Z,1.00
2018-10-03T06:27:20.523Z,0.87
2018-10-03T06:29:48.196Z,1.60
2018-10-03T06:32:15.971Z,3.80
2018-10-03T06:34:43.707Z,2.93
2018-10-03T06:37:11.409Z,1.90
2018-10-03T06:39:39.031Z,2.57
2018-10-03T06:42:06.727Z,2.77
2018-10-03T06:44:34.375Z,1.43
2018-10-03T06:47:01.919Z,1.60
2018-10-03T06:49:29.518Z,1.03
2018-10-03T06:51:57.171Z,2.43
2018-10-03T06:54:24.898Z,1.73
2018-10-03T06:56:52.408Z,1.13
2018-10-03T06:59:20.062Z,1.27
2018-10-03T07:01:47.589Z,1.20
2018-10-03T07:04:15.214Z,2.40
2018-10-03T07:06:43.671Z,0.93
2018-10-03T07:09:11.362Z,2.20
2018-10-03T07:11:39.215Z,1.43
2018-10-03T07:14:07.086Z,1.37
2018-10-03T07:16:34.646Z,1.43
2018-10-03T07:19:02.387Z,2.07
2018-10-03T07:21:29.901Z,1.73
2018-10-03T07:23:57.442Z,1.53
2018-10-03T07:26:25.075Z,2.00
2018-10-03T07:28:52.806Z,2.10
2018-10-03T07:31:20.419Z,0.70
2018-10-03T07:33:47.934Z,0.80
2018-10-03T07:36:15.606Z,1.10
2018-10-03T07:38:43.144Z,1.53
2018-10-03T07:41:10.821Z,0.87
2018-10-03T07:43:38.398Z,1.40
2018-10-03T07:46:06.417Z,0.80
2018-10-03T07:48:34.059Z,1.70
2018-10-03T07:51:01.678Z,0.80
2018-10-03T07:53:29.255Z,1.47
2018-10-03T07:55:56.814Z,0.63
2018-10-03T07:58:24.357Z,0.77
2018-10-03T08:00:51.993Z,2.20
2018-10-03T08:03:19.639Z,1.53
2018-10-03T08:05:47.191Z,1.27
2018-10-03T08:08:14.713Z,1.73
2018-10-03T08:10:42.218Z,1.80
2018-10-03T08:13:09.798Z,1.93
2018-10-03T08:15:37.506Z,0.70
2018-10-03T08:18:05.187Z,1.10
2018-10-03T08:20:32.910Z,3.97
2018-10-03T08:23:00.570Z,1.30
2018-10-03T08:25:28.219Z,0.60
2018-10-03T08:27:55.922Z,1.23
2018-10-03T08:30:23.557Z,1.47
2018-10-03T08:32:51.426Z,1.53
2018-10-03T08:35:18.986Z,3.00
2018-10-03T08:37:46.631Z,0.87
2018-10-03T08:40:14.169Z,1.40
2018-10-03T08:42:41.862Z,1.80
2018-10-03T08:45:09.520Z,0.70
2018-10-03T08:47:37.544Z,1.10
2018-10-03T08:50:05.858Z,0.90
2018-10-03T08:52:33.483Z,1.63
2018-10-03T08:55:01.005Z,2.50
2018-10-03T08:57:28.541Z,1.10
2018-10-03T08:59:56.074Z,1.30
2018-10-03T09:02:23.695Z,1.20
2018-10-03T09:04:51.355Z,1.30
2018-10-03T09:07:18.883Z,1.00
2018-10-03T09:09:46.403Z,1.17
2018-10-03T09:12:14.043Z,0.60
2018-10-03T09:14:41.675Z,0.63
2018-10-03T09:17:09.208Z,1.20
2018-10-03T09:19:36.898Z,1.17
2018-10-03T09:22:04.421Z,1.03
2018-10-03T09:24:32.043Z,1.33
2018-10-03T09:26:59.569Z,1.70
2018-10-03T09:29:27.204Z,2.13
2018-10-03T09:31:54.791Z,2.20
2018-10-03T09:34:22.330Z,3.30
2018-10-03T09:36:49.850Z,1.80
2018-10-03T09:39:17.361Z,1.40
2018-10-03T09:41:44.862Z,2.10
2018-10-03T09:44:12.507Z,1.30
2018-10-03T09:46:40.625Z,1.60
2018-10-03T09:49:08.165Z,2.30
2018-10-03T09:51:35.808Z,2.03
2018-10-03T09:54:03.753Z,1.70
2018-10-03T09:56:31.261Z,2.60
2018-10-03T09:58:58.794Z,1.40
2018-10-03T10:01:28.286Z,1.70
2018-10-03T10:03:55.836Z,1.87
2018-10-03T10:06:23.469Z,1.77
2018-10-03T10:08:51.091Z,2.60
2018-10-03T10:11:19.012Z,1.90
2018-10-03T10:13:46.594Z,2.30
2018-10-03T10:16:14.133Z,2.67
2018-10-03T10:21:38.294Z,2.00
2018-10-03T10:24:05.847Z,1.53
2018-10-03T10:26:33.467Z,2.03
2018-10-03T10:29:01.078Z,1.83
2018-10-03T10:31:28.718Z,1.47
2018-10-03T10:33:56.242Z,1.97
2018-10-03T10:36:23.756Z,2.10
2018-10-03T10:38:51.395Z,4.47
2018-10-03T10:41:19.103Z,1.77
2018-10-03T10:43:46.492Z,1.53
2018-10-03T10:46:14.118Z,1.50
2018-10-03T10:48:41.625Z,1.63
2018-10-03T10:51:09.250Z,1.40
2018-10-03T10:53:36.754Z,6.63
2018-10-03T10:56:04.282Z,2.00
2018-10-03T10:58:31.786Z,2.20
2018-10-03T11:00:59.330Z,2.50
2018-10-03T11:03:26.852Z,3.83
2018-10-03T11:05:54.523Z,2.20
2018-10-03T11:08:22.094Z,1.67
2018-10-03T11:10:49.607Z,1.73
2018-10-03T11:13:17.166Z,2.33
2018-10-03T11:15:44.861Z,2.47
2018-10-03T11:18:12.383Z,4.17
2018-10-03T11:20:40.024Z,2.00
2018-10-03T11:23:07.643Z,2.27
2018-10-03T11:25:35.266Z,2.00
2018-10-03T11:28:02.886Z,2.40
2018-10-03T11:30:30.467Z,1.90
2018-10-03T11:32:57.981Z,1.80
2018-10-03T11:35:25.614Z,1.57
2018-10-03T11:37:53.142Z,2.53
2018-10-03T11:40:20.686Z,2.30
2018-10-03T11:42:48.294Z,2.83
2018-10-03T11:45:15.914Z,2.10
2018-10-03T11:47:43.436Z,1.50
2018-10-03T11:50:10.949Z,2.30
2018-10-03T11:52:38.482Z,1.63
2018-10-03T11:55:06.013Z,2.37
2018-10-03T11:57:33.541Z,1.70
2018-10-03T12:00:01.153Z,2.10
2018-10-03T12:02:28.918Z,2.33
2018-10-03T12:04:56.542Z,1.70
2018-10-03T12:07:24.163Z,2.40
2018-10-03T12:09:51.795Z,2.87
2018-10-03T12:12:19.442Z,2.60
2018-10-03T12:14:46.957Z,11.63
2018-10-03T12:17:14.568Z,6.13
2018-10-03T12:19:42.115Z,4.53
2018-10-03T12:22:09.630Z,3.33
2018-10-03T12:24:37.133Z,3.87
2018-10-03T12:27:04.654Z,3.13
2018-10-03T12:29:32.288Z,3.70
2018-10-03T12:31:59.838Z,3.33
2018-10-03T12:34:27.426Z,3.27
2018-10-03T12:36:54.958Z,3.93
2018-10-03T12:39:23.087Z,5.63
2018-10-03T12:41:50.709Z,4.87
2018-10-03T12:44:18.318Z,6.43
2018-10-03T12:46:45.850Z,4.13
2018-10-03T12:49:13.510Z,2.17
2018-10-03T12:51:41.040Z,2.73
2018-10-03T12:54:08.691Z,2.33
2018-10-03T12:56:36.218Z,1.87
2018-10-03T12:59:03.880Z,2.27
2018-10-03T13:01:31.406Z,2.13
2018-10-03T13:03:59.035Z,1.67
2018-10-03T13:06:26.578Z,1.90
2018-10-03T13:08:54.153Z,2.40
2018-10-03T13:11:21.841Z,2.50
2018-10-03T13:13:49.358Z,1.63
2018-10-03T13:16:17.212Z,1.90
2018-10-03T13:18:44.765Z,2.20
2018-10-03T13:21:12.320Z,1.87
2018-10-03T13:23:39.931Z,2.90
2018-10-03T13:26:07.546Z,3.03
2018-10-03T13:28:35.078Z,3.90
2018-10-03T13:31:02.613Z,1.53
2018-10-03T13:33:30.174Z,1.43
2018-10-03T13:35:57.768Z,1.73
2018-10-03T13:38:25.395Z,2.13
2018-10-03T13:40:52.947Z,3.00
2018-10-03T13:43:20.475Z,1.93
2018-10-03T13:45:48.106Z,1.97
2018-10-03T13:48:15.618Z,1.87
2018-10-03T13:50:43.279Z,1.90
2018-10-03T13:53:10.810Z,1.67
2018-10-03T13:55:38.351Z,1.80
2018-10-03T13:58:05.862Z,1.63
2018-10-03T14:00:34.218Z,1.87
2018-10-03T14:03:01.763Z,1.70
2018-10-03T14:05:29.410Z,1.60
2018-10-03T14:07:56.949Z,1.53
2018-10-03T14:10:24.559Z,1.90
2018-10-03T14:12:52.075Z,20.53
2018-10-03T14:15:19.718Z,40.07
2018-10-03T14:17:47.239Z,38.63
2018-10-03T14:20:14.758Z,46.53
2018-10-03T14:22:42.388Z,57.13
2018-10-03T14:25:09.899Z,160.83
2018-10-03T14:27:37.522Z,83.93
2018-10-03T14:30:05.232Z,75.30
2018-10-03T14:32:32.877Z,45.77
2018-10-03T14:35:00.489Z,30.50
2018-10-03T14:37:28.121Z,17.73
2018-10-03T14:39:55.703Z,11.73
2018-10-03T14:42:23.186Z,6.77
2018-10-03T14:44:50.779Z,5.10
2018-10-03T14:47:18.422Z,3.87
2018-10-03T14:49:45.960Z,2.77
2018-10-03T14:52:13.686Z,3.80
2018-10-03T14:54:41.214Z,3.07
2018-10-03T14:57:08.725Z,2.00
2018-10-03T14:59:36.343Z,1.90
2018-10-03T15:02:04.006Z,1.60
2018-10-03T15:04:31.549Z,1.80
2018-10-03T15:06:59.077Z,1.87
2018-10-03T15:09:26.606Z,1.43
2018-10-03T15:11:54.121Z,1.60
2018-10-03T15:14:21.739Z,1.80
2018-10-03T15:16:49.371Z,1.23
2018-10-03T15:19:16.882Z,1.60
2018-10-03T15:21:44.414Z,1.33
2018-10-03T15:24:11.970Z,2.43
2018-10-03T15:26:39.530Z,1.40
2018-10-03T15:29:07.119Z,1.50
2018-10-03T15:31:34.642Z,2.27
2018-10-03T15:34:02.170Z,2.17
2018-10-03T15:36:30.241Z,1.73
2018-10-03T15:38:57.818Z,1.33
2018-10-03T15:41:25.337Z,1.50
2018-10-03T15:43:52.858Z,1.10
2018-10-03T15:46:20.414Z,1.70
2018-10-03T15:48:47.942Z,2.13
2018-10-03T15:51:15.610Z,1.03
2018-10-03T15:53:43.137Z,1.53
2018-10-03T15:56:10.790Z,2.73
2018-10-03T15:58:38.426Z,2.30
2018-10-03T16:01:05.930Z,2.13
2018-10-03T16:03:33.442Z,1.40
2018-10-03T16:06:01.059Z,1.70
2018-10-03T16:08:28.714Z,1.60
2018-10-03T16:10:56.369Z,1.53
2018-10-03T16:13:23.991Z,1.53
2018-10-03T16:15:51.532Z,2.13
2018-10-03T16:18:19.069Z,1.30
2018-10-03T16:20:46.613Z,1.40
2018-10-03T16:23:14.221Z,1.57
2018-10-03T16:25:41.722Z,2.33
2018-10-03T16:28:09.249Z,2.20
2018-10-03T16:30:36.851Z,1.43
2018-10-03T16:33:04.371Z,1.33
2018-10-03T16:35:31.914Z,1.47
2018-10-03T16:37:59.526Z,1.30
2018-10-03T16:40:27.078Z,1.63
2018-10-03T16:42:54.743Z,1.93
2018-10-03T16:45:22.426Z,1.30
2018-10-03T16:47:49.933Z,1.50
2018-10-03T16:50:17.463Z,1.73
2018-10-03T16:52:45.046Z,1.70
2018-10-03T16:55:12.668Z,2.20
2018-10-03T16:57:40.328Z,2.77
2018-10-03T17:00:07.977Z,1.77
2018-10-03T17:02:35.598Z,1.50
2018-10-03T17:05:03.173Z,1.60
2018-10-03T17:07:30.817Z,1.47
2018-10-03T17:09:58.426Z,1.40
2018-10-03T17:12:25.966Z,2.07
2018-10-03T17:14:53.636Z,1.57
2018-10-03T17:17:21.300Z,1.60
2018-10-03T17:19:48.902Z,2.23
2018-10-03T17:22:16.426Z,1.67
2018-10-03T17:24:43.926Z,1.70
2018-10-03T17:27:11.552Z,1.97
2018-10-03T17:29:39.085Z,1.70
2018-10-03T17:32:06.746Z,2.17
2018-10-03T17:34:34.322Z,1.47
2018-10-03T17:37:01.849Z,2.93
2018-10-03T17:39:29.445Z,2.63
2018-10-03T17:41:57.177Z,1.60
2018-10-03T17:44:24.912Z,1.80
2018-10-03T17:46:54.242Z,2.30
2018-10-03T17:49:21.782Z,2.47
2018-10-03T17:51:49.306Z,2.57
2018-10-03T17:54:17.083Z,1.80
2018-10-03T17:56:44.678Z,2.07
2018-10-03T17:59:12.316Z,3.63
2018-10-03T18:01:48.585Z,1.43
2018-10-03T18:04:16.122Z,2.30
2018-10-03T18:06:43.817Z,1.67
2018-10-03T18:09:11.844Z,1.60
2018-10-03T18:11:39.411Z,2.37
2018-10-03T18:14:07.234Z,2.13
2018-10-03T18:16:34.924Z,2.80
2018-10-03T18:19:02.616Z,1.73
2018-10-03T18:21:30.113Z,1.57
2018-10-03T18:23:57.780Z,1.77
2018-10-03T18:26:25.433Z,1.80
2018-10-03T18:28:53.099Z,1.80
2018-10-03T18:31:20.757Z,2.33
2018-10-03T18:33:48.329Z,2.17
2018-10-03T18:36:15.945Z,2.30
2018-10-03T18:38:43.506Z,2.57
2018-10-03T18:41:11.151Z,2.83
2018-10-03T18:43:38.810Z,2.53
2018-10-03T18:46:06.377Z,3.13
2018-10-03T18:48:33.958Z,3.53
2018-10-03T18:51:01.532Z,3.10
2018-10-03T18:53:29.078Z,3.20
2018-10-03T18:55:56.678Z,2.77
2018-10-03T18:58:24.223Z,3.90
2018-10-03T19:00:51.830Z,2.60
2018-10-03T19:03:19.354Z,2.70
2018-10-03T19:05:47.015Z,2.60
2018-10-03T19:08:14.646Z,2.43
2018-10-03T19:10:42.322Z,2.57
2018-10-03T19:13:09.841Z,2.77
2018-10-03T19:15:37.345Z,2.10
2018-10-03T19:18:04.947Z,3.07
2018-10-03T19:20:32.935Z,1.90
2018-10-03T19:23:00.583Z,2.37
2018-10-03T19:25:28.223Z,1.63
2018-10-03T19:27:55.803Z,1.80
2018-10-03T19:30:23.434Z,1.67
2018-10-03T19:32:50.949Z,3.13
2018-10-03T19:35:18.480Z,2.40
2018-10-03T19:37:46.180Z,3.27
2018-10-03T19:40:13.710Z,3.53
2018-10-03T19:42:41.258Z,2.10
2018-10-03T19:45:08.925Z,2.83
2018-10-03T19:47:36.641Z,2.43
2018-10-03T19:50:04.377Z,2.03
2018-10-03T19:52:32.058Z,2.07
2018-10-03T19:54:59.606Z,1.90
2018-10-03T19:57:27.262Z,2.33
2018-10-03T19:59:54.978Z,3.47
2018-10-03T20:02:22.543Z,2.93
2018-10-03T20:04:50.236Z,2.00
2018-10-03T20:07:17.809Z,2.70
2018-10-03T20:09:45.451Z,1.90
2018-10-03T20:12:13.066Z,2.27
2018-10-03T20:14:40.691Z,1.80
2018-10-03T20:17:08.231Z,1.90
2018-10-03T20:19:35.914Z,2.63
2018-10-03T20:22:03.667Z,1.70
2018-10-03T20:24:31.225Z,1.93
2018-10-03T20:26:58.758Z,2.43
2018-10-03T20:29:26.430Z,2.17
2018-10-03T20:31:54.074Z,2.10
2018-10-03T20:34:21.707Z,2.13
2018-10-03T20:36:49.247Z,2.23
2018-10-03T20:39:16.800Z,1.90
2018-10-03T20:41:44.499Z,2.30
2018-10-03T20:44:12.148Z,1.73
2018-10-03T20:46:39.964Z,2.70
2018-10-03T20:49:07.484Z,2.40
2018-10-03T20:51:35.366Z,2.03
2018-10-03T20:54:03.209Z,2.10
2018-10-03T20:56:30.851Z,2.47
2018-10-03T20:58:58.416Z,2.23
2018-10-03T21:01:26.006Z,2.93
2018-10-03T21:03:53.874Z,2.50
2018-10-03T21:06:21.564Z,2.33
2018-10-03T21:08:49.305Z,2.60
2018-10-03T21:11:16.959Z,3.03
2018-10-03T21:13:44.489Z,2.43
2018-10-03T21:16:12.136Z,2.50
2018-10-03T21:18:39.691Z,2.90
2018-10-03T21:21:07.313Z,2.40
2018-10-03T21:23:34.978Z,2.40
2018-10-03T21:26:02.663Z,2.30
2018-10-03T21:28:30.264Z,3.33
2018-10-03T21:30:57.902Z,3.03
2018-10-03T21:33:25.543Z,2.67
2018-10-03T21:35:53.274Z,3.20
2018-10-03T21:38:20.965Z,2.97
2018-10-03T21:40:48.558Z,2.17
2018-10-03T21:43:16.082Z,3.00
2018-10-03T21:45:43.730Z,3.83
2018-10-03T21:48:11.253Z,2.77
2018-10-03T21:50:39.130Z,2.93
2018-10-03T21:53:06.787Z,3.07
2018-10-03T21:55:34.398Z,2.40
2018-10-03T21:58:02.030Z,3.03
2018-10-03T22:00:35.167Z,2.70
2018-10-03T22:03:03.040Z,2.60
2018-10-03T22:05:30.741Z,2.90
2018-10-03T22:07:58.387Z,2.47
2018-10-03T22:10:25.936Z,2.27
2018-10-03T22:12:53.583Z,3.77
2018-10-03T22:15:21.253Z,2.13
2018-10-03T22:17:49.138Z,2.63
2018-10-03T22:20:16.662Z,2.30
2018-10-03T22:22:44.377Z,2.17
2018-10-03T22:25:11.990Z,2.97
2018-10-03T22:27:39.611Z,2.53
2018-10-03T22:30:07.174Z,2.43
2018-10-03T22:32:34.791Z,2.70
2018-10-03T22:35:02.450Z,2.70
2018-10-03T22:37:30.123Z,2.40
2018-10-03T22:39:57.630Z,3.00
2018-10-03T22:42:25.322Z,2.70
2018-10-03T22:44:53.022Z,2.77
2018-10-03T22:47:20.767Z,2.97
2018-10-03T22:49:48.432Z,3.00
2018-10-03T22:52:15.995Z,2.77
2018-10-03T22:54:43.599Z,3.43
2018-10-03T22:57:11.338Z,3.90
2018-10-03T22:59:38.999Z,3.17
2018-10-03T23:02:06.849Z,2.60
2018-10-03T23:04:34.532Z,2.47
2018-10-03T23:07:02.238Z,3.10
2018-10-03T23:09:29.779Z,2.60
2018-10-03T23:11:57.490Z,3.17
2018-10-03T23:14:25.078Z,3.50
2018-10-03T23:16:52.819Z,3.70
2018-10-03T23:19:20.439Z,3.43
2018-10-03T23:21:47.958Z,3.47
2018-10-03T23:24:15.599Z,3.73
2018-10-03T23:26:43.242Z,3.23
2018-10-03T23:29:10.872Z,3.03
2018-10-03T23:31:38.421Z,4.80
2018-10-03T23:34:06.017Z,3.70
2018-10-03T23:36:33.515Z,4.43
2018-10-03T23:39:01.142Z,3.80
2018-10-03T23:41:28.653Z,4.67
2018-10-03T23:43:56.272Z,3.23
2018-10-03T23:46:23.907Z,3.50
2018-10-03T23:48:51.518Z,3.30
2018-10-03T23:51:19.134Z,3.70
2018-10-03T23:53:46.658Z,3.70
2018-10-03T23:56:14.271Z,4.70
2018-10-03T23:58:41.913Z,4.33
